<?xml version="1.0" encoding="UTF-8" standalone="no" ?>
<gpx xmlns="http://www.topografix.com/GPX/1/1" xmlns:xsi="http://www.w3.org/2001/XMLSchema-instance" xsi:schemaLocation="http://www.topografix.com/GPX/1/1 http://www.topografix.com/GPX/1/1/gpx.xsd" version="1.1" creator="VisuGPX - https://www.visugpx.com">
  <metadata>
    <name>3ème étape PLM 2018 Saint-Ouen-u-Tilleul - Louvetot</name>
    <desc><![CDATA[3ème étape PLM 2018 Saint-Ouen-u-Tilleul - Louvetot]]></desc>
  </metadata>
  <trk>
    <name><![CDATA[8158096-St Ouen du Tilleul- Louvetot]]></name>
    <trkseg>
      <trkpt lat="49.30907" lon="0.93899">
        <ele>123</ele>
        <time>2018-05-05T22:17:20Z</time>
      </trkpt>
      <trkpt lat="49.30936" lon="0.94254">
        <ele>119</ele>
        <time>2018-05-05T22:18:20Z</time>
      </trkpt>
      <trkpt lat="49.30928" lon="0.94389">
        <ele>118</ele>
        <time>2018-05-05T22:19:20Z</time>
      </trkpt>
      <trkpt lat="49.30988" lon="0.94362">
        <ele>117</ele>
        <time>2018-05-05T22:20:20Z</time>
      </trkpt>
      <trkpt lat="49.3108" lon="0.94364">
        <ele>117</ele>
        <time>2018-05-05T22:21:20Z</time>
      </trkpt>
      <trkpt lat="49.31141" lon="0.94345">
        <ele>118</ele>
        <time>2018-05-05T22:22:20Z</time>
      </trkpt>
      <trkpt lat="49.31202" lon="0.94298">
        <ele>119</ele>
        <time>2018-05-05T22:23:20Z</time>
      </trkpt>
      <trkpt lat="49.31324" lon="0.94204">
        <ele>119</ele>
        <time>2018-05-05T22:24:20Z</time>
      </trkpt>
      <trkpt lat="49.31447" lon="0.94304">
        <ele>126</ele>
        <time>2018-05-05T22:25:20Z</time>
      </trkpt>
      <trkpt lat="49.31887" lon="0.94179">
        <ele>117</ele>
        <time>2018-05-05T22:26:20Z</time>
      </trkpt>
      <trkpt lat="49.32125" lon="0.94079">
        <ele>109</ele>
        <time>2018-05-05T22:27:20Z</time>
      </trkpt>
      <trkpt lat="49.32289" lon="0.9406">
        <ele>106</ele>
        <time>2018-05-05T22:28:20Z</time>
      </trkpt>
      <trkpt lat="49.32283" lon="0.93996">
        <ele>104</ele>
        <time>2018-05-05T22:29:20Z</time>
      </trkpt>
      <trkpt lat="49.32288" lon="0.93873">
        <ele>110</ele>
        <time>2018-05-05T22:30:20Z</time>
      </trkpt>
      <trkpt lat="49.32321" lon="0.93813">
        <ele>109</ele>
        <time>2018-05-05T22:31:20Z</time>
      </trkpt>
      <trkpt lat="49.32342" lon="0.93994">
        <ele>106</ele>
        <time>2018-05-05T22:32:20Z</time>
      </trkpt>
      <trkpt lat="49.32563" lon="0.94224">
        <ele>109</ele>
        <time>2018-05-05T22:33:20Z</time>
      </trkpt>
      <trkpt lat="49.32628" lon="0.94469">
        <ele>110</ele>
        <time>2018-05-05T22:34:20Z</time>
      </trkpt>
      <trkpt lat="49.32618" lon="0.94562">
        <ele>107</ele>
        <time>2018-05-05T22:35:20Z</time>
      </trkpt>
      <trkpt lat="49.32631" lon="0.94619">
        <ele>108</ele>
        <time>2018-05-05T22:36:20Z</time>
      </trkpt>
      <trkpt lat="49.32667" lon="0.94749">
        <ele>113</ele>
        <time>2018-05-05T22:37:20Z</time>
      </trkpt>
      <trkpt lat="49.32725" lon="0.94819">
        <ele>119</ele>
        <time>2018-05-05T22:38:20Z</time>
      </trkpt>
      <trkpt lat="49.32943" lon="0.95059">
        <ele>114</ele>
        <time>2018-05-05T22:39:20Z</time>
      </trkpt>
      <trkpt lat="49.3296" lon="0.95102">
        <ele>112</ele>
        <time>2018-05-05T22:40:20Z</time>
      </trkpt>
      <trkpt lat="49.33065" lon="0.95192">
        <ele>101</ele>
        <time>2018-05-05T22:41:20Z</time>
      </trkpt>
      <trkpt lat="49.33176" lon="0.95354">
        <ele>86</ele>
        <time>2018-05-05T22:42:20Z</time>
      </trkpt>
      <trkpt lat="49.33242" lon="0.95414">
        <ele>74</ele>
        <time>2018-05-05T22:43:20Z</time>
      </trkpt>
      <trkpt lat="49.33293" lon="0.95495">
        <ele>67</ele>
        <time>2018-05-05T22:44:20Z</time>
      </trkpt>
      <trkpt lat="49.33278" lon="0.95548">
        <ele>62</ele>
        <time>2018-05-05T22:45:20Z</time>
      </trkpt>
      <trkpt lat="49.3328" lon="0.95598">
        <ele>57</ele>
        <time>2018-05-05T22:46:20Z</time>
      </trkpt>
      <trkpt lat="49.33305" lon="0.95611">
        <ele>55</ele>
        <time>2018-05-05T22:47:20Z</time>
      </trkpt>
      <trkpt lat="49.33355" lon="0.95603">
        <ele>54</ele>
        <time>2018-05-05T22:48:20Z</time>
      </trkpt>
      <trkpt lat="49.33379" lon="0.95637">
        <ele>50</ele>
        <time>2018-05-05T22:49:20Z</time>
      </trkpt>
      <trkpt lat="49.3339" lon="0.95714">
        <ele>45</ele>
        <time>2018-05-05T22:50:20Z</time>
      </trkpt>
      <trkpt lat="49.3337" lon="0.95821">
        <ele>41</ele>
        <time>2018-05-05T22:51:20Z</time>
      </trkpt>
      <trkpt lat="49.33393" lon="0.95893">
        <ele>41</ele>
        <time>2018-05-05T22:52:20Z</time>
      </trkpt>
      <trkpt lat="49.33439" lon="0.95894">
        <ele>43</ele>
        <time>2018-05-05T22:53:20Z</time>
      </trkpt>
      <trkpt lat="49.33517" lon="0.95828">
        <ele>46</ele>
        <time>2018-05-05T22:54:20Z</time>
      </trkpt>
      <trkpt lat="49.33551" lon="0.95749">
        <ele>46</ele>
        <time>2018-05-05T22:55:20Z</time>
      </trkpt>
      <trkpt lat="49.33619" lon="0.95829">
        <ele>54</ele>
        <time>2018-05-05T22:56:20Z</time>
      </trkpt>
      <trkpt lat="49.33736" lon="0.95965">
        <ele>71</ele>
        <time>2018-05-05T22:57:20Z</time>
      </trkpt>
      <trkpt lat="49.33875" lon="0.96112">
        <ele>85</ele>
        <time>2018-05-05T22:58:20Z</time>
      </trkpt>
      <trkpt lat="49.33837" lon="0.96226">
        <ele>89</ele>
        <time>2018-05-05T22:59:20Z</time>
      </trkpt>
      <trkpt lat="49.33821" lon="0.96269">
        <ele>93</ele>
        <time>2018-05-05T23:00:20Z</time>
      </trkpt>
      <trkpt lat="49.3382" lon="0.96289">
        <ele>95</ele>
        <time>2018-05-05T23:01:20Z</time>
      </trkpt>
      <trkpt lat="49.33974" lon="0.96168">
        <ele>82</ele>
        <time>2018-05-05T23:02:20Z</time>
      </trkpt>
      <trkpt lat="49.34034" lon="0.96064">
        <ele>70</ele>
        <time>2018-05-05T23:03:20Z</time>
      </trkpt>
      <trkpt lat="49.34061" lon="0.95957">
        <ele>66</ele>
        <time>2018-05-05T23:04:20Z</time>
      </trkpt>
      <trkpt lat="49.34085" lon="0.95904">
        <ele>59</ele>
        <time>2018-05-05T23:05:20Z</time>
      </trkpt>
      <trkpt lat="49.34093" lon="0.95971">
        <ele>53</ele>
        <time>2018-05-05T23:06:20Z</time>
      </trkpt>
      <trkpt lat="49.34089" lon="0.96091">
        <ele>47</ele>
        <time>2018-05-05T23:07:20Z</time>
      </trkpt>
      <trkpt lat="49.3415" lon="0.96576">
        <ele>27</ele>
        <time>2018-05-05T23:08:20Z</time>
      </trkpt>
      <trkpt lat="49.34212" lon="0.96746">
        <ele>14</ele>
        <time>2018-05-05T23:09:20Z</time>
      </trkpt>
      <trkpt lat="49.34209" lon="0.96631">
        <ele>14</ele>
        <time>2018-05-05T23:10:20Z</time>
      </trkpt>
      <trkpt lat="49.3423" lon="0.96651">
        <ele>10</ele>
        <time>2018-05-05T23:11:20Z</time>
      </trkpt>
      <trkpt lat="49.34278" lon="0.96648">
        <ele>7</ele>
        <time>2018-05-05T23:12:20Z</time>
      </trkpt>
      <trkpt lat="49.34294" lon="0.96658">
        <ele>8</ele>
        <time>2018-05-05T23:13:20Z</time>
      </trkpt>
      <trkpt lat="49.34287" lon="0.96632">
        <ele>7</ele>
        <time>2018-05-05T23:14:20Z</time>
      </trkpt>
      <trkpt lat="49.34283" lon="0.96515">
        <ele>5</ele>
        <time>2018-05-05T23:15:20Z</time>
      </trkpt>
      <trkpt lat="49.34268" lon="0.96358">
        <ele>8</ele>
        <time>2018-05-05T23:16:20Z</time>
      </trkpt>
      <trkpt lat="49.34243" lon="0.95977">
        <ele>7</ele>
        <time>2018-05-05T23:17:20Z</time>
      </trkpt>
      <trkpt lat="49.3479" lon="0.95994">
        <ele>6</ele>
        <time>2018-05-05T23:18:20Z</time>
      </trkpt>
      <trkpt lat="49.34815" lon="0.95998">
        <ele>5</ele>
        <time>2018-05-05T23:19:20Z</time>
      </trkpt>
      <trkpt lat="49.34884" lon="0.96">
        <ele>5</ele>
        <time>2018-05-05T23:20:20Z</time>
      </trkpt>
      <trkpt lat="49.34885" lon="0.95965">
        <ele>5</ele>
        <time>2018-05-05T23:21:20Z</time>
      </trkpt>
      <trkpt lat="49.34972" lon="0.95895">
        <ele>3</ele>
        <time>2018-05-05T23:22:20Z</time>
      </trkpt>
      <trkpt lat="49.3502" lon="0.95627">
        <ele>4</ele>
        <time>2018-05-05T23:23:20Z</time>
      </trkpt>
      <trkpt lat="49.35027" lon="0.9552">
        <ele>3</ele>
        <time>2018-05-05T23:24:20Z</time>
      </trkpt>
      <trkpt lat="49.35021" lon="0.95232">
        <ele>4</ele>
        <time>2018-05-05T23:25:20Z</time>
      </trkpt>
      <trkpt lat="49.35013" lon="0.9512">
        <ele>3</ele>
        <time>2018-05-05T23:26:20Z</time>
      </trkpt>
      <trkpt lat="49.34981" lon="0.94995">
        <ele>6</ele>
        <time>2018-05-05T23:27:20Z</time>
      </trkpt>
      <trkpt lat="49.34987" lon="0.94942">
        <ele>6</ele>
        <time>2018-05-05T23:28:20Z</time>
      </trkpt>
      <trkpt lat="49.34992" lon="0.94707">
        <ele>5</ele>
        <time>2018-05-05T23:29:20Z</time>
      </trkpt>
      <trkpt lat="49.3497" lon="0.94595">
        <ele>7</ele>
        <time>2018-05-05T23:30:20Z</time>
      </trkpt>
      <trkpt lat="49.34921" lon="0.94475">
        <ele>9</ele>
        <time>2018-05-05T23:31:20Z</time>
      </trkpt>
      <trkpt lat="49.34955" lon="0.94217">
        <ele>6</ele>
        <time>2018-05-05T23:32:20Z</time>
      </trkpt>
      <trkpt lat="49.34958" lon="0.94123">
        <ele>8</ele>
        <time>2018-05-05T23:33:20Z</time>
      </trkpt>
      <trkpt lat="49.3501" lon="0.93859">
        <ele>6</ele>
        <time>2018-05-05T23:34:20Z</time>
      </trkpt>
      <trkpt lat="49.35026" lon="0.9369">
        <ele>4</ele>
        <time>2018-05-05T23:35:20Z</time>
      </trkpt>
      <trkpt lat="49.35056" lon="0.93606">
        <ele>3</ele>
        <time>2018-05-05T23:36:20Z</time>
      </trkpt>
      <trkpt lat="49.35112" lon="0.93359">
        <ele>4</ele>
        <time>2018-05-05T23:37:20Z</time>
      </trkpt>
      <trkpt lat="49.35331" lon="0.93541">
        <ele>2</ele>
        <time>2018-05-05T23:38:20Z</time>
      </trkpt>
      <trkpt lat="49.35368" lon="0.93489">
        <ele>2</ele>
        <time>2018-05-05T23:39:20Z</time>
      </trkpt>
      <trkpt lat="49.35377" lon="0.93455">
        <ele>2</ele>
        <time>2018-05-05T23:40:20Z</time>
      </trkpt>
      <trkpt lat="49.35496" lon="0.93196">
        <ele>2</ele>
        <time>2018-05-05T23:41:20Z</time>
      </trkpt>
      <trkpt lat="49.35632" lon="0.92983">
        <ele>1</ele>
        <time>2018-05-05T23:42:20Z</time>
      </trkpt>
      <trkpt lat="49.36078" lon="0.92512">
        <ele>3</ele>
        <time>2018-05-05T23:43:20Z</time>
      </trkpt>
      <trkpt lat="49.36548" lon="0.92176">
        <ele>3</ele>
        <time>2018-05-05T23:44:20Z</time>
      </trkpt>
      <trkpt lat="49.36889" lon="0.92054">
        <ele>1</ele>
        <time>2018-05-05T23:45:20Z</time>
      </trkpt>
      <trkpt lat="49.37857" lon="0.91935">
        <ele>3</ele>
        <time>2018-05-05T23:46:20Z</time>
      </trkpt>
      <trkpt lat="49.38168" lon="0.91932">
        <ele>3</ele>
        <time>2018-05-05T23:47:20Z</time>
      </trkpt>
      <trkpt lat="49.38191" lon="0.92093">
        <ele>4</ele>
        <time>2018-05-05T23:48:20Z</time>
      </trkpt>
      <trkpt lat="49.38054" lon="0.92291">
        <ele>5</ele>
        <time>2018-05-05T23:49:20Z</time>
      </trkpt>
      <trkpt lat="49.3802" lon="0.92393">
        <ele>8</ele>
        <time>2018-05-05T23:50:20Z</time>
      </trkpt>
      <trkpt lat="49.3802" lon="0.9295">
        <ele>6</ele>
        <time>2018-05-05T23:51:20Z</time>
      </trkpt>
      <trkpt lat="49.38296" lon="0.92999">
        <ele>8</ele>
        <time>2018-05-05T23:52:20Z</time>
      </trkpt>
      <trkpt lat="49.3838" lon="0.92999">
        <ele>7</ele>
        <time>2018-05-05T23:53:20Z</time>
      </trkpt>
      <trkpt lat="49.38436" lon="0.93009">
        <ele>6</ele>
        <time>2018-05-05T23:54:20Z</time>
      </trkpt>
      <trkpt lat="49.38481" lon="0.92993">
        <ele>7</ele>
        <time>2018-05-05T23:55:20Z</time>
      </trkpt>
      <trkpt lat="49.38789" lon="0.93059">
        <ele>10</ele>
        <time>2018-05-05T23:56:20Z</time>
      </trkpt>
      <trkpt lat="49.38789" lon="0.93181">
        <ele>9</ele>
        <time>2018-05-05T23:57:20Z</time>
      </trkpt>
      <trkpt lat="49.39002" lon="0.93121">
        <ele>8</ele>
        <time>2018-05-05T23:58:20Z</time>
      </trkpt>
      <trkpt lat="49.39244" lon="0.93141">
        <ele>7</ele>
        <time>2018-05-05T23:59:20Z</time>
      </trkpt>
      <trkpt lat="49.39598" lon="0.93271">
        <ele>6</ele>
        <time>2018-05-06T00:00:20Z</time>
      </trkpt>
      <trkpt lat="49.39687" lon="0.93346">
        <ele>8</ele>
        <time>2018-05-06T00:01:20Z</time>
      </trkpt>
      <trkpt lat="49.39829" lon="0.93548">
        <ele>12</ele>
        <time>2018-05-06T00:02:20Z</time>
      </trkpt>
      <trkpt lat="49.39912" lon="0.93598">
        <ele>10</ele>
        <time>2018-05-06T00:03:20Z</time>
      </trkpt>
      <trkpt lat="49.39966" lon="0.93678">
        <ele>10</ele>
        <time>2018-05-06T00:04:20Z</time>
      </trkpt>
      <trkpt lat="49.40205" lon="0.93824">
        <ele>9</ele>
        <time>2018-05-06T00:05:20Z</time>
      </trkpt>
      <trkpt lat="49.4031" lon="0.93959">
        <ele>10</ele>
        <time>2018-05-06T00:06:20Z</time>
      </trkpt>
      <trkpt lat="49.40361" lon="0.94044">
        <ele>11</ele>
        <time>2018-05-06T00:07:20Z</time>
      </trkpt>
      <trkpt lat="49.40245" lon="0.94293">
        <ele>19</ele>
        <time>2018-05-06T00:08:20Z</time>
      </trkpt>
      <trkpt lat="49.40199" lon="0.94337">
        <ele>23</ele>
        <time>2018-05-06T00:09:20Z</time>
      </trkpt>
      <trkpt lat="49.40195" lon="0.94404">
        <ele>30</ele>
        <time>2018-05-06T00:10:20Z</time>
      </trkpt>
      <trkpt lat="49.40109" lon="0.94493">
        <ele>45</ele>
        <time>2018-05-06T00:11:20Z</time>
      </trkpt>
      <trkpt lat="49.40254" lon="0.94495">
        <ele>50</ele>
        <time>2018-05-06T00:12:20Z</time>
      </trkpt>
      <trkpt lat="49.40316" lon="0.94521">
        <ele>51</ele>
        <time>2018-05-06T00:13:20Z</time>
      </trkpt>
      <trkpt lat="49.40334" lon="0.94586">
        <ele>56</ele>
        <time>2018-05-06T00:14:20Z</time>
      </trkpt>
      <trkpt lat="49.40322" lon="0.94674">
        <ele>60</ele>
        <time>2018-05-06T00:15:20Z</time>
      </trkpt>
      <trkpt lat="49.40325" lon="0.94781">
        <ele>60</ele>
        <time>2018-05-06T00:16:20Z</time>
      </trkpt>
      <trkpt lat="49.40328" lon="0.94917">
        <ele>64</ele>
        <time>2018-05-06T00:17:20Z</time>
      </trkpt>
      <trkpt lat="49.4034" lon="0.94959">
        <ele>64</ele>
        <time>2018-05-06T00:18:20Z</time>
      </trkpt>
      <trkpt lat="49.40349" lon="0.94987">
        <ele>64</ele>
        <time>2018-05-06T00:19:20Z</time>
      </trkpt>
      <trkpt lat="49.40347" lon="0.95063">
        <ele>66</ele>
        <time>2018-05-06T00:20:20Z</time>
      </trkpt>
      <trkpt lat="49.40337" lon="0.95111">
        <ele>67</ele>
        <time>2018-05-06T00:21:20Z</time>
      </trkpt>
      <trkpt lat="49.40298" lon="0.95204">
        <ele>75</ele>
        <time>2018-05-06T00:22:20Z</time>
      </trkpt>
      <trkpt lat="49.40267" lon="0.95353">
        <ele>81</ele>
        <time>2018-05-06T00:23:20Z</time>
      </trkpt>
      <trkpt lat="49.40199" lon="0.9543">
        <ele>89</ele>
        <time>2018-05-06T00:24:20Z</time>
      </trkpt>
      <trkpt lat="49.40195" lon="0.95491">
        <ele>87</ele>
        <time>2018-05-06T00:25:20Z</time>
      </trkpt>
      <trkpt lat="49.4022" lon="0.95585">
        <ele>89</ele>
        <time>2018-05-06T00:26:20Z</time>
      </trkpt>
      <trkpt lat="49.40177" lon="0.95742">
        <ele>97</ele>
        <time>2018-05-06T00:27:20Z</time>
      </trkpt>
      <trkpt lat="49.40181" lon="0.9585">
        <ele>103</ele>
        <time>2018-05-06T00:28:20Z</time>
      </trkpt>
      <trkpt lat="49.40277" lon="0.96007">
        <ele>110</ele>
        <time>2018-05-06T00:29:20Z</time>
      </trkpt>
      <trkpt lat="49.4031" lon="0.96066">
        <ele>113</ele>
        <time>2018-05-06T00:30:20Z</time>
      </trkpt>
      <trkpt lat="49.4042" lon="0.96199">
        <ele>117</ele>
        <time>2018-05-06T00:31:20Z</time>
      </trkpt>
      <trkpt lat="49.40436" lon="0.96274">
        <ele>118</ele>
        <time>2018-05-06T00:32:20Z</time>
      </trkpt>
      <trkpt lat="49.40429" lon="0.96375">
        <ele>119</ele>
        <time>2018-05-06T00:33:20Z</time>
      </trkpt>
      <trkpt lat="49.4041" lon="0.9644">
        <ele>121</ele>
        <time>2018-05-06T00:34:20Z</time>
      </trkpt>
      <trkpt lat="49.40388" lon="0.96526">
        <ele>121</ele>
        <time>2018-05-06T00:35:20Z</time>
      </trkpt>
      <trkpt lat="49.40029" lon="0.96842">
        <ele>120</ele>
        <time>2018-05-06T00:36:20Z</time>
      </trkpt>
      <trkpt lat="49.40441" lon="0.97962">
        <ele>124</ele>
        <time>2018-05-06T00:37:20Z</time>
      </trkpt>
      <trkpt lat="49.40862" lon="0.99177">
        <ele>124</ele>
        <time>2018-05-06T00:38:20Z</time>
      </trkpt>
      <trkpt lat="49.41447" lon="0.98267">
        <ele>125</ele>
        <time>2018-05-06T00:39:20Z</time>
      </trkpt>
      <trkpt lat="49.43422" lon="0.98847">
        <ele>58</ele>
        <time>2018-05-06T00:40:20Z</time>
      </trkpt>
      <trkpt lat="49.43441" lon="0.98767">
        <ele>64</ele>
        <time>2018-05-06T00:41:20Z</time>
      </trkpt>
      <trkpt lat="49.43408" lon="0.98485">
        <ele>70</ele>
        <time>2018-05-06T00:42:20Z</time>
      </trkpt>
      <trkpt lat="49.43368" lon="0.98238">
        <ele>80</ele>
        <time>2018-05-06T00:43:20Z</time>
      </trkpt>
      <trkpt lat="49.43349" lon="0.97989">
        <ele>79</ele>
        <time>2018-05-06T00:44:20Z</time>
      </trkpt>
      <trkpt lat="49.43332" lon="0.97911">
        <ele>79</ele>
        <time>2018-05-06T00:45:20Z</time>
      </trkpt>
      <trkpt lat="49.43322" lon="0.97632">
        <ele>85</ele>
        <time>2018-05-06T00:46:20Z</time>
      </trkpt>
      <trkpt lat="49.43331" lon="0.97449">
        <ele>93</ele>
        <time>2018-05-06T00:47:20Z</time>
      </trkpt>
      <trkpt lat="49.43351" lon="0.9739">
        <ele>92</ele>
        <time>2018-05-06T00:48:20Z</time>
      </trkpt>
      <trkpt lat="49.43667" lon="0.97443">
        <ele>92</ele>
        <time>2018-05-06T00:49:20Z</time>
      </trkpt>
      <trkpt lat="49.43664" lon="0.97372">
        <ele>88</ele>
        <time>2018-05-06T00:50:20Z</time>
      </trkpt>
      <trkpt lat="49.43692" lon="0.97053">
        <ele>85</ele>
        <time>2018-05-06T00:51:20Z</time>
      </trkpt>
      <trkpt lat="49.4375" lon="0.96962">
        <ele>83</ele>
        <time>2018-05-06T00:52:20Z</time>
      </trkpt>
      <trkpt lat="49.43794" lon="0.96816">
        <ele>73</ele>
        <time>2018-05-06T00:53:20Z</time>
      </trkpt>
      <trkpt lat="49.439" lon="0.96596">
        <ele>33</ele>
        <time>2018-05-06T00:54:20Z</time>
      </trkpt>
      <trkpt lat="49.43956" lon="0.9645">
        <ele>23</ele>
        <time>2018-05-06T00:55:20Z</time>
      </trkpt>
      <trkpt lat="49.44008" lon="0.96354">
        <ele>20</ele>
        <time>2018-05-06T00:56:20Z</time>
      </trkpt>
      <trkpt lat="49.44017" lon="0.96317">
        <ele>19</ele>
        <time>2018-05-06T00:57:20Z</time>
      </trkpt>
      <trkpt lat="49.44165" lon="0.96351">
        <ele>17</ele>
        <time>2018-05-06T00:58:20Z</time>
      </trkpt>
      <trkpt lat="49.44246" lon="0.9638">
        <ele>16</ele>
        <time>2018-05-06T00:59:20Z</time>
      </trkpt>
      <trkpt lat="49.44362" lon="0.96367">
        <ele>17</ele>
        <time>2018-05-06T01:00:20Z</time>
      </trkpt>
      <trkpt lat="49.44413" lon="0.96371">
        <ele>17</ele>
        <time>2018-05-06T01:01:20Z</time>
      </trkpt>
      <trkpt lat="49.44441" lon="0.96337">
        <ele>14</ele>
        <time>2018-05-06T01:02:20Z</time>
      </trkpt>
      <trkpt lat="49.44565" lon="0.96403">
        <ele>12</ele>
        <time>2018-05-06T01:03:20Z</time>
      </trkpt>
      <trkpt lat="49.44627" lon="0.9645">
        <ele>10</ele>
        <time>2018-05-06T01:04:20Z</time>
      </trkpt>
      <trkpt lat="49.4473" lon="0.96487">
        <ele>8</ele>
        <time>2018-05-06T01:05:20Z</time>
      </trkpt>
      <trkpt lat="49.44779" lon="0.96444">
        <ele>7</ele>
        <time>2018-05-06T01:06:20Z</time>
      </trkpt>
      <trkpt lat="49.44918" lon="0.96487">
        <ele>10</ele>
        <time>2018-05-06T01:07:20Z</time>
      </trkpt>
      <trkpt lat="49.45007" lon="0.96373">
        <ele>9</ele>
        <time>2018-05-06T01:08:20Z</time>
      </trkpt>
      <trkpt lat="49.45189" lon="0.9624">
        <ele>9</ele>
        <time>2018-05-06T01:09:20Z</time>
      </trkpt>
      <trkpt lat="49.45314" lon="0.96167">
        <ele>10</ele>
        <time>2018-05-06T01:10:20Z</time>
      </trkpt>
      <trkpt lat="49.45416" lon="0.96236">
        <ele>17</ele>
        <time>2018-05-06T01:11:20Z</time>
      </trkpt>
      <trkpt lat="49.45476" lon="0.96285">
        <ele>25</ele>
        <time>2018-05-06T01:12:20Z</time>
      </trkpt>
      <trkpt lat="49.45532" lon="0.96354">
        <ele>36</ele>
        <time>2018-05-06T01:13:20Z</time>
      </trkpt>
      <trkpt lat="49.4559" lon="0.96401">
        <ele>46</ele>
        <time>2018-05-06T01:14:20Z</time>
      </trkpt>
      <trkpt lat="49.45698" lon="0.96444">
        <ele>58</ele>
        <time>2018-05-06T01:15:20Z</time>
      </trkpt>
      <trkpt lat="49.45769" lon="0.96425">
        <ele>64</ele>
        <time>2018-05-06T01:16:20Z</time>
      </trkpt>
      <trkpt lat="49.4584" lon="0.96407">
        <ele>72</ele>
        <time>2018-05-06T01:17:20Z</time>
      </trkpt>
      <trkpt lat="49.45966" lon="0.96358">
        <ele>81</ele>
        <time>2018-05-06T01:18:20Z</time>
      </trkpt>
      <trkpt lat="49.46056" lon="0.96313">
        <ele>83</ele>
        <time>2018-05-06T01:19:20Z</time>
      </trkpt>
      <trkpt lat="49.4615" lon="0.96279">
        <ele>91</ele>
        <time>2018-05-06T01:20:20Z</time>
      </trkpt>
      <trkpt lat="49.46229" lon="0.9627">
        <ele>105</ele>
        <time>2018-05-06T01:21:20Z</time>
      </trkpt>
      <trkpt lat="49.46313" lon="0.96307">
        <ele>118</ele>
        <time>2018-05-06T01:22:20Z</time>
      </trkpt>
      <trkpt lat="49.46385" lon="0.96294">
        <ele>128</ele>
        <time>2018-05-06T01:23:20Z</time>
      </trkpt>
      <trkpt lat="49.46466" lon="0.96176">
        <ele>130</ele>
        <time>2018-05-06T01:24:20Z</time>
      </trkpt>
      <trkpt lat="49.46549" lon="0.96144">
        <ele>132</ele>
        <time>2018-05-06T01:25:20Z</time>
      </trkpt>
      <trkpt lat="49.46659" lon="0.96011">
        <ele>131</ele>
        <time>2018-05-06T01:26:20Z</time>
      </trkpt>
      <trkpt lat="49.4673" lon="0.95976">
        <ele>131</ele>
        <time>2018-05-06T01:27:20Z</time>
      </trkpt>
      <trkpt lat="49.46791" lon="0.9594">
        <ele>131</ele>
        <time>2018-05-06T01:28:20Z</time>
      </trkpt>
      <trkpt lat="49.46899" lon="0.95905">
        <ele>135</ele>
        <time>2018-05-06T01:29:20Z</time>
      </trkpt>
      <trkpt lat="49.47021" lon="0.95807">
        <ele>135</ele>
        <time>2018-05-06T01:30:20Z</time>
      </trkpt>
      <trkpt lat="49.47154" lon="0.95753">
        <ele>135</ele>
        <time>2018-05-06T01:31:20Z</time>
      </trkpt>
      <trkpt lat="49.47225" lon="0.95616">
        <ele>127</ele>
        <time>2018-05-06T01:32:20Z</time>
      </trkpt>
      <trkpt lat="49.47251" lon="0.95502">
        <ele>129</ele>
        <time>2018-05-06T01:33:20Z</time>
      </trkpt>
      <trkpt lat="49.47309" lon="0.95401">
        <ele>126</ele>
        <time>2018-05-06T01:34:20Z</time>
      </trkpt>
      <trkpt lat="49.47349" lon="0.95373">
        <ele>127</ele>
        <time>2018-05-06T01:35:20Z</time>
      </trkpt>
      <trkpt lat="49.47396" lon="0.95545">
        <ele>126</ele>
        <time>2018-05-06T01:36:20Z</time>
      </trkpt>
      <trkpt lat="49.47396" lon="0.9568">
        <ele>125</ele>
        <time>2018-05-06T01:37:20Z</time>
      </trkpt>
      <trkpt lat="49.47433" lon="0.95777">
        <ele>126</ele>
        <time>2018-05-06T01:38:20Z</time>
      </trkpt>
      <trkpt lat="49.47459" lon="0.95853">
        <ele>127</ele>
        <time>2018-05-06T01:39:20Z</time>
      </trkpt>
      <trkpt lat="49.47518" lon="0.95854">
        <ele>131</ele>
        <time>2018-05-06T01:40:20Z</time>
      </trkpt>
      <trkpt lat="49.47556" lon="0.95906">
        <ele>128</ele>
        <time>2018-05-06T01:41:20Z</time>
      </trkpt>
      <trkpt lat="49.47653" lon="0.95877">
        <ele>127</ele>
        <time>2018-05-06T01:42:20Z</time>
      </trkpt>
      <trkpt lat="49.477" lon="0.95877">
        <ele>126</ele>
        <time>2018-05-06T01:43:20Z</time>
      </trkpt>
      <trkpt lat="49.47751" lon="0.95918">
        <ele>125</ele>
        <time>2018-05-06T01:44:20Z</time>
      </trkpt>
      <trkpt lat="49.478" lon="0.95906">
        <ele>126</ele>
        <time>2018-05-06T01:45:20Z</time>
      </trkpt>
      <trkpt lat="49.47894" lon="0.95801">
        <ele>126</ele>
        <time>2018-05-06T01:46:20Z</time>
      </trkpt>
      <trkpt lat="49.47946" lon="0.9596">
        <ele>126</ele>
        <time>2018-05-06T01:47:20Z</time>
      </trkpt>
      <trkpt lat="49.47905" lon="0.95825">
        <ele>126</ele>
        <time>2018-05-06T01:48:20Z</time>
      </trkpt>
      <trkpt lat="49.47908" lon="0.95783">
        <ele>125</ele>
        <time>2018-05-06T01:49:20Z</time>
      </trkpt>
      <trkpt lat="49.48081" lon="0.95557">
        <ele>128</ele>
        <time>2018-05-06T01:50:20Z</time>
      </trkpt>
      <trkpt lat="49.4806" lon="0.95461">
        <ele>126</ele>
        <time>2018-05-06T01:51:20Z</time>
      </trkpt>
      <trkpt lat="49.47944" lon="0.9524">
        <ele>121</ele>
        <time>2018-05-06T01:52:20Z</time>
      </trkpt>
      <trkpt lat="49.4801" lon="0.95081">
        <ele>124</ele>
        <time>2018-05-06T01:53:20Z</time>
      </trkpt>
      <trkpt lat="49.4802" lon="0.95028">
        <ele>126</ele>
        <time>2018-05-06T01:54:20Z</time>
      </trkpt>
      <trkpt lat="49.48056" lon="0.94961">
        <ele>128</ele>
        <time>2018-05-06T01:55:20Z</time>
      </trkpt>
      <trkpt lat="49.48073" lon="0.94856">
        <ele>130</ele>
        <time>2018-05-06T01:56:20Z</time>
      </trkpt>
      <trkpt lat="49.48073" lon="0.94714">
        <ele>127</ele>
        <time>2018-05-06T01:57:20Z</time>
      </trkpt>
      <trkpt lat="49.48088" lon="0.94646">
        <ele>126</ele>
        <time>2018-05-06T01:58:20Z</time>
      </trkpt>
      <trkpt lat="49.48123" lon="0.94599">
        <ele>124</ele>
        <time>2018-05-06T01:59:20Z</time>
      </trkpt>
      <trkpt lat="49.48144" lon="0.94562">
        <ele>123</ele>
        <time>2018-05-06T02:00:20Z</time>
      </trkpt>
      <trkpt lat="49.48091" lon="0.94367">
        <ele>121</ele>
        <time>2018-05-06T02:01:20Z</time>
      </trkpt>
      <trkpt lat="49.48114" lon="0.94313">
        <ele>122</ele>
        <time>2018-05-06T02:02:20Z</time>
      </trkpt>
      <trkpt lat="49.4813" lon="0.94272">
        <ele>122</ele>
        <time>2018-05-06T02:03:20Z</time>
      </trkpt>
      <trkpt lat="49.48137" lon="0.94197">
        <ele>123</ele>
        <time>2018-05-06T02:04:20Z</time>
      </trkpt>
      <trkpt lat="49.48155" lon="0.94131">
        <ele>123</ele>
        <time>2018-05-06T02:05:20Z</time>
      </trkpt>
      <trkpt lat="49.48158" lon="0.94045">
        <ele>120</ele>
        <time>2018-05-06T02:06:20Z</time>
      </trkpt>
      <trkpt lat="49.48151" lon="0.93987">
        <ele>116</ele>
        <time>2018-05-06T02:07:20Z</time>
      </trkpt>
      <trkpt lat="49.48149" lon="0.93852">
        <ele>107</ele>
        <time>2018-05-06T02:08:20Z</time>
      </trkpt>
      <trkpt lat="49.4818" lon="0.93809">
        <ele>105</ele>
        <time>2018-05-06T02:09:20Z</time>
      </trkpt>
      <trkpt lat="49.48187" lon="0.93665">
        <ele>92</ele>
        <time>2018-05-06T02:10:20Z</time>
      </trkpt>
      <trkpt lat="49.48208" lon="0.93607">
        <ele>90</ele>
        <time>2018-05-06T02:11:20Z</time>
      </trkpt>
      <trkpt lat="49.4823" lon="0.93551">
        <ele>90</ele>
        <time>2018-05-06T02:12:20Z</time>
      </trkpt>
      <trkpt lat="49.48252" lon="0.93491">
        <ele>92</ele>
        <time>2018-05-06T02:13:20Z</time>
      </trkpt>
      <trkpt lat="49.48382" lon="0.9323">
        <ele>95</ele>
        <time>2018-05-06T02:14:20Z</time>
      </trkpt>
      <trkpt lat="49.48378" lon="0.93124">
        <ele>76</ele>
        <time>2018-05-06T02:15:20Z</time>
      </trkpt>
      <trkpt lat="49.48396" lon="0.93052">
        <ele>68</ele>
        <time>2018-05-06T02:16:20Z</time>
      </trkpt>
      <trkpt lat="49.484" lon="0.93015">
        <ele>65</ele>
        <time>2018-05-06T02:17:20Z</time>
      </trkpt>
      <trkpt lat="49.48425" lon="0.92936">
        <ele>63</ele>
        <time>2018-05-06T02:18:20Z</time>
      </trkpt>
      <trkpt lat="49.48423" lon="0.92891">
        <ele>62</ele>
        <time>2018-05-06T02:19:20Z</time>
      </trkpt>
      <trkpt lat="49.48455" lon="0.92813">
        <ele>54</ele>
        <time>2018-05-06T02:20:20Z</time>
      </trkpt>
      <trkpt lat="49.48473" lon="0.92736">
        <ele>49</ele>
        <time>2018-05-06T02:21:20Z</time>
      </trkpt>
      <trkpt lat="49.48476" lon="0.92693">
        <ele>45</ele>
        <time>2018-05-06T02:22:20Z</time>
      </trkpt>
      <trkpt lat="49.48494" lon="0.9269">
        <ele>46</ele>
        <time>2018-05-06T02:23:20Z</time>
      </trkpt>
      <trkpt lat="49.48534" lon="0.9277">
        <ele>42</ele>
        <time>2018-05-06T02:24:20Z</time>
      </trkpt>
      <trkpt lat="49.48549" lon="0.92756">
        <ele>38</ele>
        <time>2018-05-06T02:25:20Z</time>
      </trkpt>
      <trkpt lat="49.48567" lon="0.92707">
        <ele>31</ele>
        <time>2018-05-06T02:26:20Z</time>
      </trkpt>
      <trkpt lat="49.48573" lon="0.92612">
        <ele>21</ele>
        <time>2018-05-06T02:27:20Z</time>
      </trkpt>
      <trkpt lat="49.48516" lon="0.92412">
        <ele>11</ele>
        <time>2018-05-06T02:28:20Z</time>
      </trkpt>
      <trkpt lat="49.48469" lon="0.92376">
        <ele>9</ele>
        <time>2018-05-06T02:29:20Z</time>
      </trkpt>
      <trkpt lat="49.48526" lon="0.92055">
        <ele>22</ele>
        <time>2018-05-06T02:30:20Z</time>
      </trkpt>
      <trkpt lat="49.48544" lon="0.91652">
        <ele>22</ele>
        <time>2018-05-06T02:31:20Z</time>
      </trkpt>
      <trkpt lat="49.48606" lon="0.91199">
        <ele>26</ele>
        <time>2018-05-06T02:32:20Z</time>
      </trkpt>
      <trkpt lat="49.48645" lon="0.90694">
        <ele>22</ele>
        <time>2018-05-06T02:33:20Z</time>
      </trkpt>
      <trkpt lat="49.48655" lon="0.90216">
        <ele>26</ele>
        <time>2018-05-06T02:34:20Z</time>
      </trkpt>
      <trkpt lat="49.4864" lon="0.89844">
        <ele>10</ele>
        <time>2018-05-06T02:35:20Z</time>
      </trkpt>
      <trkpt lat="49.48672" lon="0.89819">
        <ele>14</ele>
        <time>2018-05-06T02:36:20Z</time>
      </trkpt>
      <trkpt lat="49.48716" lon="0.8985">
        <ele>20</ele>
        <time>2018-05-06T02:37:20Z</time>
      </trkpt>
      <trkpt lat="49.48741" lon="0.89847">
        <ele>22</ele>
        <time>2018-05-06T02:38:20Z</time>
      </trkpt>
      <trkpt lat="49.48701" lon="0.89746">
        <ele>22</ele>
        <time>2018-05-06T02:39:20Z</time>
      </trkpt>
      <trkpt lat="49.48694" lon="0.89697">
        <ele>30</ele>
        <time>2018-05-06T02:40:20Z</time>
      </trkpt>
      <trkpt lat="49.48674" lon="0.89632">
        <ele>30</ele>
        <time>2018-05-06T02:41:20Z</time>
      </trkpt>
      <trkpt lat="49.48691" lon="0.8958">
        <ele>35</ele>
        <time>2018-05-06T02:42:20Z</time>
      </trkpt>
      <trkpt lat="49.48729" lon="0.89535">
        <ele>44</ele>
        <time>2018-05-06T02:43:20Z</time>
      </trkpt>
      <trkpt lat="49.48751" lon="0.89453">
        <ele>46</ele>
        <time>2018-05-06T02:44:20Z</time>
      </trkpt>
      <trkpt lat="49.48753" lon="0.89351">
        <ele>46</ele>
        <time>2018-05-06T02:45:20Z</time>
      </trkpt>
      <trkpt lat="49.48687" lon="0.89128">
        <ele>38</ele>
        <time>2018-05-06T02:46:20Z</time>
      </trkpt>
      <trkpt lat="49.4866" lon="0.88894">
        <ele>34</ele>
        <time>2018-05-06T02:47:20Z</time>
      </trkpt>
      <trkpt lat="49.48628" lon="0.88711">
        <ele>29</ele>
        <time>2018-05-06T02:48:20Z</time>
      </trkpt>
      <trkpt lat="49.48541" lon="0.88732">
        <ele>20</ele>
        <time>2018-05-06T02:49:20Z</time>
      </trkpt>
      <trkpt lat="49.48478" lon="0.88486">
        <ele>21</ele>
        <time>2018-05-06T02:50:20Z</time>
      </trkpt>
      <trkpt lat="49.4846" lon="0.88353">
        <ele>21</ele>
        <time>2018-05-06T02:51:20Z</time>
      </trkpt>
      <trkpt lat="49.48412" lon="0.88212">
        <ele>18</ele>
        <time>2018-05-06T02:52:20Z</time>
      </trkpt>
      <trkpt lat="49.48408" lon="0.8818">
        <ele>20</ele>
        <time>2018-05-06T02:53:20Z</time>
      </trkpt>
      <trkpt lat="49.48392" lon="0.88176">
        <ele>18</ele>
        <time>2018-05-06T02:54:20Z</time>
      </trkpt>
      <trkpt lat="49.48322" lon="0.88011">
        <ele>22</ele>
        <time>2018-05-06T02:55:20Z</time>
      </trkpt>
      <trkpt lat="49.48265" lon="0.87841">
        <ele>24</ele>
        <time>2018-05-06T02:56:20Z</time>
      </trkpt>
      <trkpt lat="49.48356" lon="0.87855">
        <ele>28</ele>
        <time>2018-05-06T02:57:20Z</time>
      </trkpt>
      <trkpt lat="49.48456" lon="0.87674">
        <ele>11</ele>
        <time>2018-05-06T02:58:20Z</time>
      </trkpt>
      <trkpt lat="49.4837" lon="0.87532">
        <ele>11</ele>
        <time>2018-05-06T02:59:20Z</time>
      </trkpt>
      <trkpt lat="49.48436" lon="0.87522">
        <ele>7</ele>
        <time>2018-05-06T03:00:20Z</time>
      </trkpt>
      <trkpt lat="49.4856" lon="0.87409">
        <ele>12</ele>
        <time>2018-05-06T03:01:20Z</time>
      </trkpt>
      <trkpt lat="49.48547" lon="0.87359">
        <ele>12</ele>
        <time>2018-05-06T03:02:20Z</time>
      </trkpt>
      <trkpt lat="49.48521" lon="0.87356">
        <ele>10</ele>
        <time>2018-05-06T03:03:20Z</time>
      </trkpt>
      <trkpt lat="49.48502" lon="0.87263">
        <ele>9</ele>
        <time>2018-05-06T03:04:20Z</time>
      </trkpt>
      <trkpt lat="49.48471" lon="0.87195">
        <ele>9</ele>
        <time>2018-05-06T03:05:20Z</time>
      </trkpt>
      <trkpt lat="49.4844" lon="0.87098">
        <ele>11</ele>
        <time>2018-05-06T03:06:20Z</time>
      </trkpt>
      <trkpt lat="49.48387" lon="0.87052">
        <ele>15</ele>
        <time>2018-05-06T03:07:20Z</time>
      </trkpt>
      <trkpt lat="49.48114" lon="0.86967">
        <ele>18</ele>
        <time>2018-05-06T03:08:20Z</time>
      </trkpt>
      <trkpt lat="49.47948" lon="0.86869">
        <ele>14</ele>
        <time>2018-05-06T03:09:20Z</time>
      </trkpt>
      <trkpt lat="49.47931" lon="0.86851">
        <ele>15</ele>
        <time>2018-05-06T03:10:20Z</time>
      </trkpt>
      <trkpt lat="49.47947" lon="0.86823">
        <ele>19</ele>
        <time>2018-05-06T03:11:20Z</time>
      </trkpt>
      <trkpt lat="49.47966" lon="0.86731">
        <ele>33</ele>
        <time>2018-05-06T03:12:20Z</time>
      </trkpt>
      <trkpt lat="49.47967" lon="0.86684">
        <ele>41</ele>
        <time>2018-05-06T03:13:20Z</time>
      </trkpt>
      <trkpt lat="49.47902" lon="0.86649">
        <ele>39</ele>
        <time>2018-05-06T03:14:20Z</time>
      </trkpt>
      <trkpt lat="49.47849" lon="0.86601">
        <ele>43</ele>
        <time>2018-05-06T03:15:20Z</time>
      </trkpt>
      <trkpt lat="49.47732" lon="0.86486">
        <ele>44</ele>
        <time>2018-05-06T03:16:20Z</time>
      </trkpt>
      <trkpt lat="49.47668" lon="0.86394">
        <ele>49</ele>
        <time>2018-05-06T03:17:20Z</time>
      </trkpt>
      <trkpt lat="49.47631" lon="0.86312">
        <ele>54</ele>
        <time>2018-05-06T03:18:20Z</time>
      </trkpt>
      <trkpt lat="49.47672" lon="0.86192">
        <ele>68</ele>
        <time>2018-05-06T03:19:20Z</time>
      </trkpt>
      <trkpt lat="49.47699" lon="0.86214">
        <ele>69</ele>
        <time>2018-05-06T03:20:20Z</time>
      </trkpt>
      <trkpt lat="49.47844" lon="0.86028">
        <ele>85</ele>
        <time>2018-05-06T03:21:20Z</time>
      </trkpt>
      <trkpt lat="49.47802" lon="0.85904">
        <ele>86</ele>
        <time>2018-05-06T03:22:20Z</time>
      </trkpt>
      <trkpt lat="49.47785" lon="0.85801">
        <ele>86</ele>
        <time>2018-05-06T03:23:20Z</time>
      </trkpt>
      <trkpt lat="49.47713" lon="0.85681">
        <ele>90</ele>
        <time>2018-05-06T03:24:20Z</time>
      </trkpt>
      <trkpt lat="49.47688" lon="0.85067">
        <ele>93</ele>
        <time>2018-05-06T03:25:20Z</time>
      </trkpt>
      <trkpt lat="49.47632" lon="0.84685">
        <ele>90</ele>
        <time>2018-05-06T03:26:20Z</time>
      </trkpt>
      <trkpt lat="49.4766" lon="0.84441">
        <ele>77</ele>
        <time>2018-05-06T03:27:20Z</time>
      </trkpt>
      <trkpt lat="49.47699" lon="0.84196">
        <ele>78</ele>
        <time>2018-05-06T03:28:20Z</time>
      </trkpt>
      <trkpt lat="49.4766" lon="0.84076">
        <ele>71</ele>
        <time>2018-05-06T03:29:20Z</time>
      </trkpt>
      <trkpt lat="49.47666" lon="0.83981">
        <ele>61</ele>
        <time>2018-05-06T03:30:20Z</time>
      </trkpt>
      <trkpt lat="49.47663" lon="0.83891">
        <ele>52</ele>
        <time>2018-05-06T03:31:20Z</time>
      </trkpt>
      <trkpt lat="49.47696" lon="0.8378">
        <ele>39</ele>
        <time>2018-05-06T03:32:20Z</time>
      </trkpt>
      <trkpt lat="49.47562" lon="0.83466">
        <ele>28</ele>
        <time>2018-05-06T03:33:20Z</time>
      </trkpt>
      <trkpt lat="49.47537" lon="0.82973">
        <ele>51</ele>
        <time>2018-05-06T03:34:20Z</time>
      </trkpt>
      <trkpt lat="49.47473" lon="0.82668">
        <ele>62</ele>
        <time>2018-05-06T03:35:20Z</time>
      </trkpt>
      <trkpt lat="49.47462" lon="0.82496">
        <ele>66</ele>
        <time>2018-05-06T03:36:20Z</time>
      </trkpt>
      <trkpt lat="49.4735" lon="0.82192">
        <ele>75</ele>
        <time>2018-05-06T03:37:20Z</time>
      </trkpt>
      <trkpt lat="49.47693" lon="0.82063">
        <ele>88</ele>
        <time>2018-05-06T03:38:20Z</time>
      </trkpt>
      <trkpt lat="49.47939" lon="0.82067">
        <ele>110</ele>
        <time>2018-05-06T03:39:20Z</time>
      </trkpt>
      <trkpt lat="49.47939" lon="0.81939">
        <ele>109</ele>
        <time>2018-05-06T03:40:20Z</time>
      </trkpt>
      <trkpt lat="49.47995" lon="0.81831">
        <ele>107</ele>
        <time>2018-05-06T03:41:20Z</time>
      </trkpt>
      <trkpt lat="49.48128" lon="0.8175">
        <ele>115</ele>
        <time>2018-05-06T03:42:20Z</time>
      </trkpt>
      <trkpt lat="49.48271" lon="0.81728">
        <ele>118</ele>
        <time>2018-05-06T03:43:20Z</time>
      </trkpt>
      <trkpt lat="49.48324" lon="0.8166">
        <ele>116</ele>
        <time>2018-05-06T03:44:20Z</time>
      </trkpt>
      <trkpt lat="49.48271" lon="0.81355">
        <ele>77</ele>
        <time>2018-05-06T03:45:20Z</time>
      </trkpt>
      <trkpt lat="49.48438" lon="0.81175">
        <ele>73</ele>
        <time>2018-05-06T03:46:20Z</time>
      </trkpt>
      <trkpt lat="49.4851" lon="0.8114">
        <ele>75</ele>
        <time>2018-05-06T03:47:20Z</time>
      </trkpt>
      <trkpt lat="49.48597" lon="0.81123">
        <ele>77</ele>
        <time>2018-05-06T03:48:20Z</time>
      </trkpt>
      <trkpt lat="49.48742" lon="0.81063">
        <ele>80</ele>
        <time>2018-05-06T03:49:20Z</time>
      </trkpt>
      <trkpt lat="49.48789" lon="0.80909">
        <ele>61</ele>
        <time>2018-05-06T03:50:20Z</time>
      </trkpt>
      <trkpt lat="49.48951" lon="0.80849">
        <ele>74</ele>
        <time>2018-05-06T03:51:20Z</time>
      </trkpt>
      <trkpt lat="49.49046" lon="0.80741">
        <ele>86</ele>
        <time>2018-05-06T03:52:20Z</time>
      </trkpt>
      <trkpt lat="49.49132" lon="0.80698">
        <ele>98</ele>
        <time>2018-05-06T03:53:20Z</time>
      </trkpt>
      <trkpt lat="49.49093" lon="0.80625">
        <ele>88</ele>
        <time>2018-05-06T03:54:20Z</time>
      </trkpt>
      <trkpt lat="49.49185" lon="0.80484">
        <ele>86</ele>
        <time>2018-05-06T03:55:20Z</time>
      </trkpt>
      <trkpt lat="49.49269" lon="0.80342">
        <ele>76</ele>
        <time>2018-05-06T03:56:20Z</time>
      </trkpt>
      <trkpt lat="49.49358" lon="0.80248">
        <ele>73</ele>
        <time>2018-05-06T03:57:20Z</time>
      </trkpt>
      <trkpt lat="49.49405" lon="0.80209">
        <ele>72</ele>
        <time>2018-05-06T03:58:20Z</time>
      </trkpt>
      <trkpt lat="49.49478" lon="0.80149">
        <ele>69</ele>
        <time>2018-05-06T03:59:20Z</time>
      </trkpt>
      <trkpt lat="49.49486" lon="0.80089">
        <ele>55</ele>
        <time>2018-05-06T04:00:20Z</time>
      </trkpt>
      <trkpt lat="49.49531" lon="0.80059">
        <ele>57</ele>
        <time>2018-05-06T04:01:20Z</time>
      </trkpt>
      <trkpt lat="49.49592" lon="0.8008">
        <ele>72</ele>
        <time>2018-05-06T04:02:20Z</time>
      </trkpt>
      <trkpt lat="49.4962" lon="0.8002">
        <ele>69</ele>
        <time>2018-05-06T04:03:20Z</time>
      </trkpt>
      <trkpt lat="49.49637" lon="0.79844">
        <ele>50</ele>
        <time>2018-05-06T04:04:20Z</time>
      </trkpt>
      <trkpt lat="49.49717" lon="0.79793">
        <ele>59</ele>
        <time>2018-05-06T04:05:20Z</time>
      </trkpt>
      <trkpt lat="49.4979" lon="0.79741">
        <ele>58</ele>
        <time>2018-05-06T04:06:20Z</time>
      </trkpt>
      <trkpt lat="49.49857" lon="0.79771">
        <ele>66</ele>
        <time>2018-05-06T04:07:20Z</time>
      </trkpt>
      <trkpt lat="49.49896" lon="0.7984">
        <ele>72</ele>
        <time>2018-05-06T04:08:20Z</time>
      </trkpt>
      <trkpt lat="49.50007" lon="0.79823">
        <ele>61</ele>
        <time>2018-05-06T04:09:20Z</time>
      </trkpt>
      <trkpt lat="49.50138" lon="0.7987">
        <ele>65</ele>
        <time>2018-05-06T04:10:20Z</time>
      </trkpt>
      <trkpt lat="49.50175" lon="0.79836">
        <ele>67</ele>
        <time>2018-05-06T04:11:20Z</time>
      </trkpt>
      <trkpt lat="49.50127" lon="0.79733">
        <ele>67</ele>
        <time>2018-05-06T04:12:20Z</time>
      </trkpt>
      <trkpt lat="49.50066" lon="0.7963">
        <ele>67</ele>
        <time>2018-05-06T04:13:20Z</time>
      </trkpt>
      <trkpt lat="49.50041" lon="0.79505">
        <ele>67</ele>
        <time>2018-05-06T04:14:20Z</time>
      </trkpt>
      <trkpt lat="49.50041" lon="0.79419">
        <ele>62</ele>
        <time>2018-05-06T04:15:20Z</time>
      </trkpt>
      <trkpt lat="49.50147" lon="0.79196">
        <ele>57</ele>
        <time>2018-05-06T04:16:20Z</time>
      </trkpt>
      <trkpt lat="49.50227" lon="0.7914">
        <ele>60</ele>
        <time>2018-05-06T04:17:20Z</time>
      </trkpt>
      <trkpt lat="49.50314" lon="0.7902">
        <ele>65</ele>
        <time>2018-05-06T04:18:20Z</time>
      </trkpt>
      <trkpt lat="49.50395" lon="0.78896">
        <ele>53</ele>
        <time>2018-05-06T04:19:20Z</time>
      </trkpt>
      <trkpt lat="49.50453" lon="0.78827">
        <ele>46</ele>
        <time>2018-05-06T04:20:20Z</time>
      </trkpt>
      <trkpt lat="49.50531" lon="0.78849">
        <ele>46</ele>
        <time>2018-05-06T04:21:20Z</time>
      </trkpt>
      <trkpt lat="49.50565" lon="0.78943">
        <ele>48</ele>
        <time>2018-05-06T04:22:20Z</time>
      </trkpt>
      <trkpt lat="49.50604" lon="0.7899">
        <ele>50</ele>
        <time>2018-05-06T04:23:20Z</time>
      </trkpt>
      <trkpt lat="49.50665" lon="0.78771">
        <ele>60</ele>
        <time>2018-05-06T04:24:20Z</time>
      </trkpt>
      <trkpt lat="49.50637" lon="0.78621">
        <ele>54</ele>
        <time>2018-05-06T04:25:20Z</time>
      </trkpt>
      <trkpt lat="49.50668" lon="0.78557">
        <ele>57</ele>
        <time>2018-05-06T04:26:20Z</time>
      </trkpt>
      <trkpt lat="49.5071" lon="0.78527">
        <ele>63</ele>
        <time>2018-05-06T04:27:20Z</time>
      </trkpt>
      <trkpt lat="49.50765" lon="0.78514">
        <ele>74</ele>
        <time>2018-05-06T04:28:20Z</time>
      </trkpt>
      <trkpt lat="49.50796" lon="0.7845">
        <ele>73</ele>
        <time>2018-05-06T04:29:20Z</time>
      </trkpt>
      <trkpt lat="49.50885" lon="0.78407">
        <ele>83</ele>
        <time>2018-05-06T04:30:20Z</time>
      </trkpt>
      <trkpt lat="49.50966" lon="0.78402">
        <ele>99</ele>
        <time>2018-05-06T04:31:20Z</time>
      </trkpt>
      <trkpt lat="49.50974" lon="0.78329">
        <ele>90</ele>
        <time>2018-05-06T04:32:20Z</time>
      </trkpt>
      <trkpt lat="49.51052" lon="0.78171">
        <ele>83</ele>
        <time>2018-05-06T04:33:20Z</time>
      </trkpt>
      <trkpt lat="49.51125" lon="0.78076">
        <ele>75</ele>
        <time>2018-05-06T04:34:20Z</time>
      </trkpt>
      <trkpt lat="49.51217" lon="0.78158">
        <ele>82</ele>
        <time>2018-05-06T04:35:20Z</time>
      </trkpt>
      <trkpt lat="49.51231" lon="0.78334">
        <ele>99</ele>
        <time>2018-05-06T04:36:20Z</time>
      </trkpt>
      <trkpt lat="49.51239" lon="0.78608">
        <ele>119</ele>
        <time>2018-05-06T04:37:20Z</time>
      </trkpt>
      <trkpt lat="49.51334" lon="0.78673">
        <ele>120</ele>
        <time>2018-05-06T04:38:20Z</time>
      </trkpt>
      <trkpt lat="49.51651" lon="0.78488">
        <ele>115</ele>
        <time>2018-05-06T04:39:20Z</time>
      </trkpt>
      <trkpt lat="49.51657" lon="0.78565">
        <ele>112</ele>
        <time>2018-05-06T04:40:20Z</time>
      </trkpt>
      <trkpt lat="49.51841" lon="0.78583">
        <ele>114</ele>
        <time>2018-05-06T04:41:20Z</time>
      </trkpt>
      <trkpt lat="49.51858" lon="0.78437">
        <ele>119</ele>
        <time>2018-05-06T04:42:20Z</time>
      </trkpt>
      <trkpt lat="49.51855" lon="0.78166">
        <ele>111</ele>
        <time>2018-05-06T04:43:20Z</time>
      </trkpt>
      <trkpt lat="49.51888" lon="0.7808">
        <ele>111</ele>
        <time>2018-05-06T04:44:20Z</time>
      </trkpt>
      <trkpt lat="49.51883" lon="0.78016">
        <ele>108</ele>
        <time>2018-05-06T04:45:20Z</time>
      </trkpt>
      <trkpt lat="49.51902" lon="0.7796">
        <ele>106</ele>
        <time>2018-05-06T04:46:20Z</time>
      </trkpt>
      <trkpt lat="49.51908" lon="0.77909">
        <ele>102</ele>
        <time>2018-05-06T04:47:20Z</time>
      </trkpt>
      <trkpt lat="49.5198" lon="0.7784">
        <ele>109</ele>
        <time>2018-05-06T04:48:20Z</time>
      </trkpt>
      <trkpt lat="49.52" lon="0.77776">
        <ele>112</ele>
        <time>2018-05-06T04:49:20Z</time>
      </trkpt>
      <trkpt lat="49.52269" lon="0.77555">
        <ele>118</ele>
        <time>2018-05-06T04:50:20Z</time>
      </trkpt>
      <trkpt lat="49.5234" lon="0.77557">
        <ele>117</ele>
        <time>2018-05-06T04:51:20Z</time>
      </trkpt>
      <trkpt lat="49.52372" lon="0.77529">
        <ele>114</ele>
        <time>2018-05-06T04:52:20Z</time>
      </trkpt>
      <trkpt lat="49.52425" lon="0.77535">
        <ele>109</ele>
        <time>2018-05-06T04:53:20Z</time>
      </trkpt>
      <trkpt lat="49.52448" lon="0.77463">
        <ele>108</ele>
        <time>2018-05-06T04:54:20Z</time>
      </trkpt>
      <trkpt lat="49.52514" lon="0.77467">
        <ele>105</ele>
        <time>2018-05-06T04:55:20Z</time>
      </trkpt>
      <trkpt lat="49.52576" lon="0.77523">
        <ele>108</ele>
        <time>2018-05-06T04:56:20Z</time>
      </trkpt>
      <trkpt lat="49.52579" lon="0.77447">
        <ele>109</ele>
        <time>2018-05-06T04:57:20Z</time>
      </trkpt>
      <trkpt lat="49.52604" lon="0.77323">
        <ele>105</ele>
        <time>2018-05-06T04:58:20Z</time>
      </trkpt>
      <trkpt lat="49.52649" lon="0.77252">
        <ele>98</ele>
        <time>2018-05-06T04:59:20Z</time>
      </trkpt>
      <trkpt lat="49.52677" lon="0.77151">
        <ele>87</ele>
        <time>2018-05-06T05:00:20Z</time>
      </trkpt>
      <trkpt lat="49.52693" lon="0.77138">
        <ele>82</ele>
        <time>2018-05-06T05:01:20Z</time>
      </trkpt>
      <trkpt lat="49.52707" lon="0.77048">
        <ele>70</ele>
        <time>2018-05-06T05:02:20Z</time>
      </trkpt>
      <trkpt lat="49.52711" lon="0.77008">
        <ele>64</ele>
        <time>2018-05-06T05:03:20Z</time>
      </trkpt>
      <trkpt lat="49.52703" lon="0.76926">
        <ele>54</ele>
        <time>2018-05-06T05:04:20Z</time>
      </trkpt>
      <trkpt lat="49.52721" lon="0.76898">
        <ele>46</ele>
        <time>2018-05-06T05:05:20Z</time>
      </trkpt>
      <trkpt lat="49.52714" lon="0.76832">
        <ele>34</ele>
        <time>2018-05-06T05:06:20Z</time>
      </trkpt>
      <trkpt lat="49.52732" lon="0.76812">
        <ele>30</ele>
        <time>2018-05-06T05:07:20Z</time>
      </trkpt>
      <trkpt lat="49.52721" lon="0.7678">
        <ele>28</ele>
        <time>2018-05-06T05:08:20Z</time>
      </trkpt>
      <trkpt lat="49.52789" lon="0.76699">
        <ele>20</ele>
        <time>2018-05-06T05:09:20Z</time>
      </trkpt>
      <trkpt lat="49.52817" lon="0.76761">
        <ele>19</ele>
        <time>2018-05-06T05:10:20Z</time>
      </trkpt>
      <trkpt lat="49.52961" lon="0.76677">
        <ele>15</ele>
        <time>2018-05-06T05:11:20Z</time>
      </trkpt>
      <trkpt lat="49.52972" lon="0.76632">
        <ele>20</ele>
        <time>2018-05-06T05:12:20Z</time>
      </trkpt>
      <trkpt lat="49.52951" lon="0.76538">
        <ele>22</ele>
        <time>2018-05-06T05:13:20Z</time>
      </trkpt>
      <trkpt lat="49.52927" lon="0.76445">
        <ele>19</ele>
        <time>2018-05-06T05:14:20Z</time>
      </trkpt>
      <trkpt lat="49.52919" lon="0.76291">
        <ele>22</ele>
        <time>2018-05-06T05:15:20Z</time>
      </trkpt>
      <trkpt lat="49.52925" lon="0.76227">
        <ele>27</ele>
        <time>2018-05-06T05:16:20Z</time>
      </trkpt>
      <trkpt lat="49.52944" lon="0.76154">
        <ele>27</ele>
        <time>2018-05-06T05:17:20Z</time>
      </trkpt>
      <trkpt lat="49.52985" lon="0.76123">
        <ele>25</ele>
        <time>2018-05-06T05:18:20Z</time>
      </trkpt>
      <trkpt lat="49.53228" lon="0.76041">
        <ele>27</ele>
        <time>2018-05-06T05:19:20Z</time>
      </trkpt>
      <trkpt lat="49.53314" lon="0.76034">
        <ele>29</ele>
        <time>2018-05-06T05:20:20Z</time>
      </trkpt>
      <trkpt lat="49.53363" lon="0.76041">
        <ele>32</ele>
        <time>2018-05-06T05:21:20Z</time>
      </trkpt>
      <trkpt lat="49.53425" lon="0.76012">
        <ele>25</ele>
        <time>2018-05-06T05:22:20Z</time>
      </trkpt>
      <trkpt lat="49.53479" lon="0.76025">
        <ele>26</ele>
        <time>2018-05-06T05:23:20Z</time>
      </trkpt>
      <trkpt lat="49.53565" lon="0.7597">
        <ele>28</ele>
        <time>2018-05-06T05:24:20Z</time>
      </trkpt>
      <trkpt lat="49.53613" lon="0.75934">
        <ele>28</ele>
        <time>2018-05-06T05:25:20Z</time>
      </trkpt>
      <trkpt lat="49.53691" lon="0.75895">
        <ele>27</ele>
        <time>2018-05-06T05:26:20Z</time>
      </trkpt>
      <trkpt lat="49.53784" lon="0.75823">
        <ele>14</ele>
        <time>2018-05-06T05:27:20Z</time>
      </trkpt>
      <trkpt lat="49.53803" lon="0.75788">
        <ele>10</ele>
        <time>2018-05-06T05:28:20Z</time>
      </trkpt>
      <trkpt lat="49.53825" lon="0.75761">
        <ele>7</ele>
        <time>2018-05-06T05:29:20Z</time>
      </trkpt>
      <trkpt lat="49.5383" lon="0.75719">
        <ele>6</ele>
        <time>2018-05-06T05:30:20Z</time>
      </trkpt>
      <trkpt lat="49.5382" lon="0.7566">
        <ele>5</ele>
        <time>2018-05-06T05:31:20Z</time>
      </trkpt>
      <trkpt lat="49.53794" lon="0.75609">
        <ele>5</ele>
        <time>2018-05-06T05:32:20Z</time>
      </trkpt>
      <trkpt lat="49.53789" lon="0.75506">
        <ele>9</ele>
        <time>2018-05-06T05:33:20Z</time>
      </trkpt>
      <trkpt lat="49.53846" lon="0.75462">
        <ele>13</ele>
        <time>2018-05-06T05:34:20Z</time>
      </trkpt>
      <trkpt lat="49.5413" lon="0.75545">
        <ele>14</ele>
        <time>2018-05-06T05:35:20Z</time>
      </trkpt>
      <trkpt lat="49.54538" lon="0.75594">
        <ele>12</ele>
        <time>2018-05-06T05:36:20Z</time>
      </trkpt>
      <trkpt lat="49.54607" lon="0.75581">
        <ele>13</ele>
        <time>2018-05-06T05:37:20Z</time>
      </trkpt>
      <trkpt lat="49.54715" lon="0.75492">
        <ele>20</ele>
        <time>2018-05-06T05:38:20Z</time>
      </trkpt>
      <trkpt lat="49.5496" lon="0.75474">
        <ele>12</ele>
        <time>2018-05-06T05:39:20Z</time>
      </trkpt>
      <trkpt lat="49.5517" lon="0.75601">
        <ele>12</ele>
        <time>2018-05-06T05:40:20Z</time>
      </trkpt>
      <trkpt lat="49.55209" lon="0.75671">
        <ele>13</ele>
        <time>2018-05-06T05:41:20Z</time>
      </trkpt>
      <trkpt lat="49.55242" lon="0.75687">
        <ele>15</ele>
        <time>2018-05-06T05:42:20Z</time>
      </trkpt>
      <trkpt lat="49.55416" lon="0.75577">
        <ele>14</ele>
        <time>2018-05-06T05:43:20Z</time>
      </trkpt>
      <trkpt lat="49.55548" lon="0.75421">
        <ele>19</ele>
        <time>2018-05-06T05:44:20Z</time>
      </trkpt>
      <trkpt lat="49.55602" lon="0.75395">
        <ele>21</ele>
        <time>2018-05-06T05:45:20Z</time>
      </trkpt>
      <trkpt lat="49.55652" lon="0.75318">
        <ele>19</ele>
        <time>2018-05-06T05:46:20Z</time>
      </trkpt>
      <trkpt lat="49.55691" lon="0.75239">
        <ele>29</ele>
        <time>2018-05-06T05:47:20Z</time>
      </trkpt>
      <trkpt lat="49.55708" lon="0.75141">
        <ele>43</ele>
        <time>2018-05-06T05:48:20Z</time>
      </trkpt>
      <trkpt lat="49.55691" lon="0.75063">
        <ele>45</ele>
        <time>2018-05-06T05:49:20Z</time>
      </trkpt>
      <trkpt lat="49.55641" lon="0.74963">
        <ele>50</ele>
        <time>2018-05-06T05:50:20Z</time>
      </trkpt>
      <trkpt lat="49.5563" lon="0.74882">
        <ele>56</ele>
        <time>2018-05-06T05:51:20Z</time>
      </trkpt>
      <trkpt lat="49.55645" lon="0.74792">
        <ele>55</ele>
        <time>2018-05-06T05:52:20Z</time>
      </trkpt>
      <trkpt lat="49.55667" lon="0.74724">
        <ele>55</ele>
        <time>2018-05-06T05:53:20Z</time>
      </trkpt>
      <trkpt lat="49.55836" lon="0.74591">
        <ele>71</ele>
        <time>2018-05-06T05:54:20Z</time>
      </trkpt>
      <trkpt lat="49.55861" lon="0.74493">
        <ele>80</ele>
        <time>2018-05-06T05:55:20Z</time>
      </trkpt>
      <trkpt lat="49.55829" lon="0.74296">
        <ele>81</ele>
        <time>2018-05-06T05:56:20Z</time>
      </trkpt>
      <trkpt lat="49.55838" lon="0.742">
        <ele>82</ele>
        <time>2018-05-06T05:57:20Z</time>
      </trkpt>
      <trkpt lat="49.55862" lon="0.74161">
        <ele>85</ele>
        <time>2018-05-06T05:58:20Z</time>
      </trkpt>
      <trkpt lat="49.55981" lon="0.7412">
        <ele>94</ele>
        <time>2018-05-06T05:59:20Z</time>
      </trkpt>
      <trkpt lat="49.56093" lon="0.73986">
        <ele>95</ele>
        <time>2018-05-06T06:00:20Z</time>
      </trkpt>
      <trkpt lat="49.56215" lon="0.73968">
        <ele>100</ele>
        <time>2018-05-06T06:01:20Z</time>
      </trkpt>
      <trkpt lat="49.564" lon="0.73633">
        <ele>106</ele>
        <time>2018-05-06T06:02:20Z</time>
      </trkpt>
      <trkpt lat="49.56462" lon="0.734">
        <ele>110</ele>
        <time>2018-05-06T06:03:20Z</time>
      </trkpt>
      <trkpt lat="49.56408" lon="0.73222">
        <ele>111</ele>
        <time>2018-05-06T06:04:20Z</time>
      </trkpt>
      <trkpt lat="49.56397" lon="0.73154">
        <ele>114</ele>
        <time>2018-05-06T06:05:20Z</time>
      </trkpt>
      <trkpt lat="49.56501" lon="0.72669">
        <ele>120</ele>
        <time>2018-05-06T06:06:20Z</time>
      </trkpt>
      <trkpt lat="49.5652" lon="0.7263">
        <ele>121</ele>
        <time>2018-05-06T06:07:20Z</time>
      </trkpt>
      <trkpt lat="49.5655" lon="0.72612">
        <ele>122</ele>
        <time>2018-05-06T06:08:20Z</time>
      </trkpt>
      <trkpt lat="49.5676" lon="0.72704">
        <ele>126</ele>
        <time>2018-05-06T06:09:20Z</time>
      </trkpt>
      <trkpt lat="49.568" lon="0.72688">
        <ele>127</ele>
        <time>2018-05-06T06:10:20Z</time>
      </trkpt>
      <trkpt lat="49.56822" lon="0.72649">
        <ele>128</ele>
        <time>2018-05-06T06:11:20Z</time>
      </trkpt>
      <trkpt lat="49.5683" lon="0.726">
        <ele>130</ele>
        <time>2018-05-06T06:12:20Z</time>
      </trkpt>
      <trkpt lat="49.56853" lon="0.72549">
        <ele>130</ele>
        <time>2018-05-06T06:13:20Z</time>
      </trkpt>
      <trkpt lat="49.56846" lon="0.72524">
        <ele>130</ele>
        <time>2018-05-06T06:14:20Z</time>
      </trkpt>
      <trkpt lat="49.56844" lon="0.72492">
        <ele>130</ele>
        <time>2018-05-06T06:15:20Z</time>
      </trkpt>
    </trkseg>
  </trk>
</gpx>